M I D A S
Marine Information and Data Acquisition System
Tripno 1726 of the Zeeleeuw from 2009-06-29 09:14:50 to 2009-06-30 12:11:42
Back to CruiseResearch ActivitiesStationsMapUnderway DataData graphs

EquipmentUnitsComment
TimeDGPSUTC
LatitudeDGPSDM.mWGS84
LongitudeDGPSDM.mWGS84
HeadingGyrodeg 
SOGDGPSknotsSpeed over ground
COGDGPSdegCourse over ground
DepthEcho soundermeters200 kHz
Missing or incorrect values are displayed as -999
Navigation data collected by the RV Zeeleeuw from 2009-06-29 06:19:02 to 2009-06-30 12:38:59
                                                                                    Next 1000 lines
Time Latitude Longitude Heading SOG COG Depth
2009-06-29 06:19:13 51°13.662 2°55.96 130 0.1 348 8.4
2009-06-29 06:19:18 51°13.662 2°55.959 129.3 0.1 286 8.3
2009-06-29 06:19:22 51°13.663 2°55.959 128.6 0.1 7 8.3
2009-06-29 06:19:28 51°13.663 2°55.959 127.9 0.1 295 8.3
2009-06-29 06:19:33 51°13.663 2°55.959 127.4 -999 184 8.2
2009-06-29 06:19:38 51°13.663 2°55.959 127.1 0.1 184 8.2
2009-06-29 06:19:42 51°13.663 2°55.959 127.1 -999 106 8.3
2009-06-29 06:19:48 51°13.663 2°55.959 127 0.1 189 8.3
2009-06-29 06:19:53 51°13.663 2°55.96 127 -999 176 8.3
2009-06-29 06:19:58 51°13.663 2°55.96 127.1 0.1 193 8.3
2009-06-29 06:20:03 51°13.663 2°55.96 127.3 -999 135 8.5
2009-06-29 06:20:08 51°13.663 2°55.959 127.6 0.1 162 8.4
2009-06-29 06:20:13 51°13.662 2°55.959 127.9 -999 40 8.4
2009-06-29 06:20:17 51°13.662 2°55.959 128 -999 202 8.4
2009-06-29 06:20:23 51°13.662 2°55.959 128.2 -999 19 8.3
2009-06-29 06:20:28 51°13.662 2°55.959 128.3 -999 38 8.3
2009-06-29 06:20:33 51°13.662 2°55.959 128.4 -999 46 8.4
2009-06-29 06:20:38 51°13.662 2°55.959 128.5 -999 24 8.3
2009-06-29 06:20:42 51°13.662 2°55.959 128.5 -999 283 8.3
2009-06-29 06:20:48 51°13.662 2°55.959 128.5 -999 245 8.3
2009-06-29 06:20:53 51°13.662 2°55.959 128.5 -999 203 8.3
2009-06-29 06:20:58 51°13.662 2°55.959 128.3 -999 75 8.3
2009-06-29 06:21:02 51°13.662 2°55.959 128.3 -999 338 8.3
2009-06-29 06:21:08 51°13.662 2°55.959 128.1 -999 280 8.3
2009-06-29 06:21:13 51°13.662 2°55.959 128 0.1 238 8.3
2009-06-29 06:21:18 51°13.662 2°55.959 127.8 -999 288 8.2
2009-06-29 06:21:22 51°13.662 2°55.959 127.7 -999 341 8.3
2009-06-29 06:21:28 51°13.662 2°55.959 127.4 -999 233 8.3
2009-06-29 06:21:33 51°13.662 2°55.958 127.3 -999 285 8.3
2009-06-29 06:21:38 51°13.662 2°55.959 127.1 -999 159 8.3
2009-06-29 06:21:42 51°13.662 2°55.959 126.9 -999 283 8.2
2009-06-29 06:21:48 51°13.663 2°55.959 126.7 -999 325 8.3
2009-06-29 06:21:53 51°13.663 2°55.959 126.5 -999 300 8.2
2009-06-29 06:21:58 51°13.664 2°55.959 126.4 -999 1 8.2
2009-06-29 06:22:03 51°13.663 2°55.959 126.2 -999 21 8.2
2009-06-29 06:22:08 51°13.662 2°55.959 126 -999 17 8.1
2009-06-29 06:22:13 51°13.662 2°55.958 125.9 -999 242 8.2
2009-06-29 06:22:17 51°13.662 2°55.958 125.9 -999 45 8.2
2009-06-29 06:22:23 51°13.662 2°55.958 125.9 -999 200 8.1
2009-06-29 06:22:28 51°13.662 2°55.958 126 -999 77 8.2
2009-06-29 06:22:33 51°13.662 2°55.958 126.2 -999 117 8.2
2009-06-29 06:22:38 51°13.662 2°55.958 126.3 -999 34 8.2
2009-06-29 06:22:42 51°13.662 2°55.958 126.4 -999 171 8.2
2009-06-29 06:22:48 51°13.662 2°55.958 126.5 -999 166 8.2
2009-06-29 06:22:53 51°13.662 2°55.958 126.6 -999 286 8.2
2009-06-29 06:22:58 51°13.663 2°55.959 126.7 -999 351 8.2
2009-06-29 06:23:02 51°13.663 2°55.959 126.8 -999 319 8.3
2009-06-29 06:23:08 51°13.662 2°55.958 126.9 -999 271 8.2
2009-06-29 06:23:13 51°13.662 2°55.958 127 -999 279 8.2
2009-06-29 06:23:18 51°13.662 2°55.958 127 -999 224 8.2
2009-06-29 06:23:22 51°13.662 2°55.958 127 -999 213 8.2
2009-06-29 06:23:28 51°13.662 2°55.958 127 0.1 192 8.2
2009-06-29 06:23:33 51°13.663 2°55.958 127 -999 200 8.2
2009-06-29 06:23:38 51°13.663 2°55.959 127 -999 206 8.2
2009-06-29 06:23:42 51°13.664 2°55.959 127 -999 155 8.2
2009-06-29 06:23:48 51°13.664 2°55.959 127 -999 222 8.2
2009-06-29 06:23:53 51°13.664 2°55.959 127 -999 340 8.2
2009-06-29 06:23:58 51°13.664 2°55.959 127 -999 207 8.2
2009-06-29 06:24:03 51°13.663 2°55.959 126.9 -999 280 8.2
2009-06-29 06:24:08 51°13.663 2°55.959 126.9 -999 219 8.2
2009-06-29 06:24:13 51°13.663 2°55.958 126.9 -999 74 8.2
2009-06-29 06:24:18 51°13.663 2°55.958 126.9 -999 61 8.2
2009-06-29 06:24:23 51°13.662 2°55.958 126.9 -999 146 8.2
2009-06-29 06:24:28 51°13.662 2°55.958 126.9 -999 37 8.2
2009-06-29 06:24:33 51°13.662 2°55.958 127 -999 259 8.1
2009-06-29 06:24:38 51°13.662 2°55.958 127.1 -999 219 8.2
2009-06-29 06:24:42 51°13.662 2°55.958 127.1 -999 17 8.1
2009-06-29 06:24:48 51°13.662 2°55.958 127.2 -999 38 8.3
2009-06-29 06:24:53 51°13.662 2°55.958 127.2 -999 39 8.2
2009-06-29 06:24:58 51°13.662 2°55.958 127.2 -999 27 8.2
2009-06-29 06:25:02 51°13.662 2°55.958 127.2 -999 319 8.2
2009-06-29 06:25:08 51°13.662 2°55.958 127.2 -999 243 8.2
2009-06-29 06:25:13 51°13.662 2°55.958 127.2 -999 209 8.2
2009-06-29 06:25:18 51°13.662 2°55.958 127.2 -999 203 8.2
2009-06-29 06:25:22 51°13.662 2°55.958 127.2 -999 265 8.2
2009-06-29 06:25:28 51°13.662 2°55.958 127.1 -999 310 8.3
2009-06-29 06:25:33 51°13.662 2°55.958 127.1 -999 238 8.3
2009-06-29 06:25:38 51°13.662 2°55.958 127.1 -999 252 8.3
2009-06-29 06:25:42 51°13.662 2°55.959 127.1 -999 285 8.2
2009-06-29 06:25:48 51°13.662 2°55.959 127.1 -999 309 8.2
2009-06-29 06:25:53 51°13.663 2°55.959 127.1 -999 198 8.4
2009-06-29 06:25:58 51°13.663 2°55.96 127.2 -999 328 8.2
2009-06-29 06:26:03 51°13.664 2°55.96 127.2 -999 341 8.2
2009-06-29 06:26:08 51°13.663 2°55.959 127.2 -999 8 8.1
2009-06-29 06:26:13 51°13.662 2°55.959 127.2 -999 40 8.2
2009-06-29 06:26:18 51°13.662 2°55.959 127.2 -999 230 8.2
2009-06-29 06:26:23 51°13.662 2°55.959 127.2 -999 182 8.2
2009-06-29 06:26:28 51°13.661 2°55.959 127.2 0.1 212 8.2
2009-06-29 06:26:33 51°13.661 2°55.959 127.2 -999 218 8.2
2009-06-29 06:26:38 51°13.661 2°55.959 127.2 0.1 207 8.1
2009-06-29 06:26:42 51°13.662 2°55.959 127.1 -999 211 8.2
2009-06-29 06:26:48 51°13.661 2°55.959 127.1 0.1 221 8.2
2009-06-29 06:26:53 51°13.661 2°55.959 127 -999 293 8.1
2009-06-29 06:26:58 51°13.661 2°55.959 126.9 -999 208 8.1
2009-06-29 06:27:02 51°13.661 2°55.959 126.9 -999 287 8.2
2009-06-29 06:27:08 51°13.661 2°55.959 126.9 -999 226 8.2
2009-06-29 06:27:13 51°13.662 2°55.959 126.9 -999 309 8.2
2009-06-29 06:27:18 51°13.663 2°55.96 126.9 -999 340 8.2
2009-06-29 06:27:22 51°13.664 2°55.961 126.9 -999 140 8.1
2009-06-29 06:27:28 51°13.665 2°55.961 126.9 -999 331 8.2
2009-06-29 06:27:33 51°13.665 2°55.961 126.9 -999 327 8.1
2009-06-29 06:27:38 51°13.666 2°55.962 126.9 -999 35 8.1
2009-06-29 06:27:42 51°13.666 2°55.962 126.9 -999 205 8.1
2009-06-29 06:27:48 51°13.664 2°55.961 126.9 -999 231 8.1
2009-06-29 06:27:53 51°13.662 2°55.959 126.9 -999 188 8.1
2009-06-29 06:27:58 51°13.661 2°55.958 126.9 -999 166 8.1
2009-06-29 06:28:03 51°13.662 2°55.958 126.9 -999 17 8.1
2009-06-29 06:28:08 51°13.662 2°55.959 127 -999 186 8.1
2009-06-29 06:28:13 51°13.663 2°55.959 127 -999 12 8.2
2009-06-29 06:28:18 51°13.663 2°55.959 127 -999 12 8.1
2009-06-29 06:28:22 51°13.662 2°55.959 127 -999 281 8.2
2009-06-29 06:28:28 51°13.663 2°55.959 127 -999 188 8.2
2009-06-29 06:28:33 51°13.664 2°55.96 127 -999 191 8.2
2009-06-29 06:28:38 51°13.664 2°55.96 127.1 -999 336 8.1
2009-06-29 06:28:42 51°13.665 2°55.96 127.1 -999 349 8.1
2009-06-29 06:28:48 51°13.665 2°55.96 127.1 -999 79 8.1
2009-06-29 06:28:53 51°13.663 2°55.959 127.1 -999 265 8.1
2009-06-29 06:28:58 51°13.662 2°55.958 127.1 -999 35 8.2
2009-06-29 06:29:02 51°13.661 2°55.958 127.1 -999 219 8.1
2009-06-29 06:29:08 51°13.661 2°55.958 127.2 -999 178 8.2
2009-06-29 06:29:13 51°13.661 2°55.958 127.2 -999 237 8.2
2009-06-29 06:29:18 51°13.661 2°55.958 127.3 -999 216 8.2
2009-06-29 06:29:23 51°13.661 2°55.958 127.4 -999 40 8.2
2009-06-29 06:29:28 51°13.661 2°55.958 127.4 -999 254 8.2
2009-06-29 06:29:33 51°13.662 2°55.958 127.4 -999 247 8.2
2009-06-29 06:29:38 51°13.662 2°55.957 127.4 -999 225 8.2
2009-06-29 06:29:43 51°13.662 2°55.958 127.4 -999 210 8.2
2009-06-29 06:29:48 51°13.662 2°55.958 127.4 -999 119 8.3
2009-06-29 06:29:53 51°13.662 2°55.958 127.4 -999 244 8.1
2009-06-29 06:29:58 51°13.662 2°55.958 127.4 -999 262 8.1
2009-06-29 06:30:03 51°13.662 2°55.958 127.4 -999 220 8.2
2009-06-29 06:30:08 51°13.662 2°55.958 127.4 -999 19 8.2
2009-06-29 06:30:13 51°13.662 2°55.958 127.4 -999 264 8.2
2009-06-29 06:30:18 51°13.662 2°55.958 127.4 -999 12 8.2
2009-06-29 06:30:22 51°13.662 2°55.958 127.4 -999 230 8.2
2009-06-29 06:30:28 51°13.662 2°55.958 127.4 -999 189 8.2
2009-06-29 06:30:33 51°13.662 2°55.958 127.4 -999 98 8.1
2009-06-29 06:30:38 51°13.662 2°55.958 127.4 0.1 48 8.2
2009-06-29 06:30:42 51°13.662 2°55.958 127.4 -999 64 8.2
2009-06-29 06:30:48 51°13.662 2°55.958 127.4 -999 200 8.2
2009-06-29 06:30:53 51°13.662 2°55.958 127.4 -999 110 8.1
2009-06-29 06:30:58 51°13.663 2°55.959 127.4 -999 74 8.1
2009-06-29 06:31:02 51°13.663 2°55.959 127.4 -999 167 8.1
2009-06-29 06:31:08 51°13.662 2°55.958 127.4 -999 44 8.2
2009-06-29 06:31:13 51°13.662 2°55.958 127.5 -999 237 8.2
2009-06-29 06:31:18 51°13.662 2°55.958 127.5 -999 69 8.2
2009-06-29 06:31:23 51°13.662 2°55.958 127.5 -999 43 8.2
2009-06-29 06:31:28 51°13.662 2°55.958 127.5 -999 41 8.2
2009-06-29 06:31:33 51°13.662 2°55.958 127.5 -999 209 8.2
2009-06-29 06:31:38 51°13.662 2°55.958 127.5 -999 107 8.2
2009-06-29 06:31:43 51°13.662 2°55.958 127.5 -999 148 8.2
2009-06-29 06:31:48 51°13.661 2°55.958 127.5 -999 4 8.2
2009-06-29 06:31:53 51°13.661 2°55.958 127.5 -999 193 8.2
2009-06-29 06:31:58 51°13.661 2°55.958 127.5 -999 76 8.2
2009-06-29 06:32:03 51°13.661 2°55.958 127.5 -999 323 8.1
2009-06-29 06:32:08 51°13.661 2°55.958 127.5 -999 11 8.1
2009-06-29 06:32:13 51°13.661 2°55.958 127.5 -999 258 8.1
2009-06-29 06:32:18 51°13.66 2°55.958 127.5 -999 252 8.1
2009-06-29 06:32:22 51°13.66 2°55.958 127.5 -999 215 8.1
2009-06-29 06:32:28 51°13.66 2°55.958 127.6 -999 1 8.1
2009-06-29 06:32:33 51°13.66 2°55.958 127.5 -999 26 8.2
2009-06-29 06:32:38 51°13.66 2°55.958 127.5 0.1 27 8.2
2009-06-29 06:32:42 51°13.661 2°55.958 127.4 0.1 27 8.2
2009-06-29 06:32:48 51°13.661 2°55.958 127.4 -999 267 8.1
2009-06-29 06:32:53 51°13.661 2°55.958 127.3 -999 242 8
2009-06-29 06:32:58 51°13.661 2°55.958 127.3 -999 225 8.1
2009-06-29 06:33:02 51°13.661 2°55.958 127.3 -999 241 8.1
2009-06-29 06:33:08 51°13.661 2°55.958 127.3 -999 217 8.2
2009-06-29 06:33:13 51°13.661 2°55.958 127.3 -999 56 8.1
2009-06-29 06:33:18 51°13.661 2°55.958 127.4 -999 70 8.2
2009-06-29 06:33:23 51°13.661 2°55.958 127.4 -999 33 8.1
2009-06-29 06:33:28 51°13.661 2°55.958 127.5 -999 218 8.1
2009-06-29 06:33:33 51°13.661 2°55.959 127.5 -999 159 8.1
2009-06-29 06:33:38 51°13.661 2°55.959 127.6 -999 247 8.1
2009-06-29 06:33:43 51°13.661 2°55.959 127.6 -999 234 8.1
2009-06-29 06:33:48 51°13.661 2°55.959 127.6 -999 243 8.1
2009-06-29 06:33:53 51°13.661 2°55.959 127.6 -999 39 8.1
2009-06-29 06:33:58 51°13.661 2°55.959 127.7 -999 192 8.1
2009-06-29 06:34:02 51°13.661 2°55.959 127.7 -999 211 8.1
2009-06-29 06:34:08 51°13.661 2°55.958 127.8 -999 340 8.1
2009-06-29 06:34:13 51°13.661 2°55.959 127.8 0.1 22 8.1
2009-06-29 06:34:18 51°13.662 2°55.959 127.8 -999 26 8.1
2009-06-29 06:34:22 51°13.662 2°55.959 127.8 -999 22 8.1
2009-06-29 06:34:28 51°13.662 2°55.959 127.8 -999 308 8.1
2009-06-29 06:34:33 51°13.662 2°55.959 127.8 -999 355 8.1
2009-06-29 06:34:38 51°13.663 2°55.959 127.8 -999 298 8.1
2009-06-29 06:34:42 51°13.663 2°55.96 127.8 0.1 343 8.2
2009-06-29 06:34:48 51°13.664 2°55.96 127.8 -999 168 8.2
2009-06-29 06:34:53 51°13.664 2°55.96 127.8 -999 214 8.3
2009-06-29 06:34:58 51°13.663 2°55.96 127.8 -999 328 8.2
2009-06-29 06:35:02 51°13.662 2°55.959 127.8 -999 349 8.3
2009-06-29 06:35:08 51°13.661 2°55.959 127.8 0.1 225 8.2
2009-06-29 06:35:13 51°13.661 2°55.958 127.8 -999 228 8.2
2009-06-29 06:35:18 51°13.661 2°55.958 127.8 -999 248 8.2
2009-06-29 06:35:23 51°13.661 2°55.959 127.8 0.1 14 8.1
2009-06-29 06:35:28 51°13.661 2°55.959 127.8 -999 -999 8.2
2009-06-29 06:35:33 51°13.662 2°55.959 127.8 -999 332 8.2
2009-06-29 06:35:38 51°13.662 2°55.959 127.8 -999 45 8.2
2009-06-29 06:35:43 51°13.662 2°55.959 127.8 -999 214 8.2
2009-06-29 06:35:48 51°13.662 2°55.959 127.8 -999 76 8.1
2009-06-29 06:35:53 51°13.662 2°55.959 127.8 -999 176 8.2
2009-06-29 06:35:58 51°13.662 2°55.959 127.8 -999 165 8.2
2009-06-29 06:36:02 51°13.662 2°55.959 127.8 -999 302 8.2
2009-06-29 06:36:08 51°13.662 2°55.958 127.8 -999 -999 8.1
2009-06-29 06:36:13 51°13.662 2°55.958 127.8 0.1 35 8.1
2009-06-29 06:36:18 51°13.662 2°55.958 127.8 0.1 34 8.1
2009-06-29 06:36:22 51°13.662 2°55.958 127.8 -999 258 8.1
2009-06-29 06:36:28 51°13.661 2°55.958 127.8 -999 16 8.1
2009-06-29 06:36:33 51°13.661 2°55.958 127.8 -999 207 8.2
2009-06-29 06:36:38 51°13.661 2°55.958 127.8 -999 231 8.2
2009-06-29 06:36:42 51°13.661 2°55.958 127.7 0.1 209 8.1
2009-06-29 06:36:48 51°13.661 2°55.958 127.6 0.1 221 8.1
2009-06-29 06:36:53 51°13.661 2°55.958 127.5 0.1 10 8.2
2009-06-29 06:36:58 51°13.661 2°55.957 127.5 -999 313 8.2
2009-06-29 06:37:02 51°13.661 2°55.957 127.5 -999 20 8.1
2009-06-29 06:37:08 51°13.661 2°55.957 127.5 -999 330 8.2
2009-06-29 06:37:13 51°13.661 2°55.957 127.5 -999 27 8.1
2009-06-29 06:37:18 51°13.661 2°55.957 127.5 0.1 9 8.1
2009-06-29 06:37:22 51°13.661 2°55.957 127.5 0.1 18 8
2009-06-29 06:37:28 51°13.661 2°55.957 127.5 0.1 21 8.1
2009-06-29 06:37:33 51°13.662 2°55.958 127.5 -999 -999 8.1
2009-06-29 06:37:38 51°13.663 2°55.959 127.4 -999 272 8.1
2009-06-29 06:37:43 51°13.664 2°55.959 127.4 -999 343 8.1
2009-06-29 06:37:48 51°13.665 2°55.96 127.3 -999 320 8.1
2009-06-29 06:37:53 51°13.666 2°55.961 127.3 -999 9 8.1
2009-06-29 06:37:58 51°13.666 2°55.961 127.3 -999 300 8.1
2009-06-29 06:38:02 51°13.666 2°55.961 127.3 -999 354 8.1
2009-06-29 06:38:08 51°13.665 2°55.96 127.3 -999 308 8.1
2009-06-29 06:38:13 51°13.665 2°55.96 127.3 -999 10 8
2009-06-29 06:38:18 51°13.664 2°55.959 127.3 0.1 36 8
2009-06-29 06:38:22 51°13.662 2°55.958 127.3 -999 230 8
2009-06-29 06:38:28 51°13.66 2°55.957 127.3 -999 214 8
2009-06-29 06:38:33 51°13.66 2°55.957 127.3 -999 294 8
2009-06-29 06:38:38 51°13.66 2°55.957 127.3 -999 251 8
2009-06-29 06:38:42 51°13.66 2°55.957 127.3 -999 326 8
2009-06-29 06:38:48 51°13.66 2°55.957 127.3 -999 105 8
2009-06-29 06:38:53 51°13.661 2°55.957 127.3 -999 184 8.1
2009-06-29 06:38:58 51°13.662 2°55.958 127.3 -999 335 8.1
2009-06-29 06:39:02 51°13.662 2°55.959 127.4 -999 43 8.1
2009-06-29 06:39:08 51°13.663 2°55.959 127.5 -999 160 8.2
2009-06-29 06:39:13 51°13.663 2°55.959 127.6 -999 157 8.1
2009-06-29 06:39:18 51°13.663 2°55.959 127.8 -999 150 8.2
2009-06-29 06:39:22 51°13.663 2°55.959 127.8 -999 137 8.2
2009-06-29 06:39:28 51°13.663 2°55.959 128 -999 90 8.1
2009-06-29 06:39:33 51°13.661 2°55.958 128.2 -999 43 8.3
2009-06-29 06:39:38 51°13.661 2°55.958 128.4 0.1 41 8.2
2009-06-29 06:39:43 51°13.661 2°55.958 128.6 -999 215 8.2
2009-06-29 06:39:48 51°13.661 2°55.958 128.6 0.1 194 8.2
2009-06-29 06:39:53 51°13.661 2°55.958 128.7 -999 133 8.2
2009-06-29 06:39:58 51°13.661 2°55.958 128.9 0.1 45 8.2
2009-06-29 06:40:02 51°13.661 2°55.958 128.9 -999 86 8.2
2009-06-29 06:40:08 51°13.661 2°55.958 129 0.1 25 8.2
2009-06-29 06:40:13 51°13.661 2°55.958 129.1 -999 245 8.2
2009-06-29 06:40:18 51°13.661 2°55.958 129.1 -999 18 8.2
2009-06-29 06:40:22 51°13.661 2°55.958 129.1 -999 16 8.2
2009-06-29 06:40:28 51°13.661 2°55.958 129.1 -999 291 8.2
2009-06-29 06:40:33 51°13.661 2°55.958 129.1 0.1 349 8.2
2009-06-29 06:40:38 51°13.661 2°55.958 129.1 -999 1 8.2
2009-06-29 06:40:42 51°13.661 2°55.957 129 -999 238 8.2
2009-06-29 06:40:48 51°13.661 2°55.957 128.9 -999 273 8.1
2009-06-29 06:40:53 51°13.661 2°55.957 128.8 -999 357 8.2
2009-06-29 06:40:58 51°13.661 2°55.958 128.7 0.1 28 8.1
2009-06-29 06:41:03 51°13.661 2°55.958 128.6 0.1 26 8.1
2009-06-29 06:41:08 51°13.661 2°55.958 128.6 0.1 23 8.2
2009-06-29 06:41:13 51°13.661 2°55.958 128.5 -999 313 8.2
2009-06-29 06:41:18 51°13.661 2°55.958 128.4 -999 193 8.2
2009-06-29 06:41:22 51°13.661 2°55.958 128.3 -999 2 8.1
2009-06-29 06:41:28 51°13.661 2°55.958 128.2 -999 13 8.1
2009-06-29 06:41:33 51°13.661 2°55.958 128.2 -999 327 8.1
2009-06-29 06:41:38 51°13.661 2°55.958 128.2 0.1 206 8.1
2009-06-29 06:41:43 51°13.662 2°55.958 128.2 0.1 201 8.1
2009-06-29 06:41:48 51°13.662 2°55.958 128.2 -999 228 8.1
2009-06-29 06:41:53 51°13.662 2°55.958 128.2 -999 54 8.2
2009-06-29 06:41:58 51°13.662 2°55.958 128.2 0.1 25 8.2
2009-06-29 06:42:02 51°13.662 2°55.958 128.3 -999 40 8.1
2009-06-29 06:42:08 51°13.662 2°55.958 128.3 -999 261 8.1
2009-06-29 06:42:13 51°13.662 2°55.958 128.3 -999 21 8.1
2009-06-29 06:42:18 51°13.662 2°55.958 128.3 0.1 172 8.1
2009-06-29 06:42:22 51°13.662 2°55.958 128.3 -999 294 8.1
2009-06-29 06:42:28 51°13.662 2°55.959 128.3 -999 110 8.1
2009-06-29 06:42:33 51°13.662 2°55.959 128.3 -999 97 8.2
2009-06-29 06:42:38 51°13.662 2°55.959 128.3 -999 239 8.1
2009-06-29 06:42:42 51°13.661 2°55.959 128.3 -999 246 8.1
2009-06-29 06:42:48 51°13.661 2°55.959 128.3 -999 238 8.1
2009-06-29 06:42:53 51°13.661 2°55.959 128.3 -999 51 8.1
2009-06-29 06:42:58 51°13.662 2°55.959 128.2 0.1 4 8.1
2009-06-29 06:43:03 51°13.661 2°55.959 128.1 0.1 354 8
2009-06-29 06:43:08 51°13.661 2°55.959 128 -999 355 8.2
2009-06-29 06:43:13 51°13.661 2°55.959 128 -999 228 8
2009-06-29 06:43:18 51°13.661 2°55.959 128 0.1 202 8
2009-06-29 06:43:23 51°13.661 2°55.959 127.9 -999 259 8.1
2009-06-29 06:43:28 51°13.661 2°55.959 127.8 -999 56 8.1
2009-06-29 06:43:33 51°13.661 2°55.959 127.8 -999 42 8.1
2009-06-29 06:43:38 51°13.661 2°55.959 127.7 -999 356 8.1
2009-06-29 06:43:42 51°13.661 2°55.959 127.6 0.1 216 8.1
2009-06-29 06:43:48 51°13.661 2°55.959 127.5 -999 327 8
2009-06-29 06:43:53 51°13.662 2°55.959 127.5 -999 12 8
2009-06-29 06:43:58 51°13.662 2°55.959 127.4 0.1 20 8
2009-06-29 06:44:03 51°13.662 2°55.959 127.4 0.1 23 8
2009-06-29 06:44:08 51°13.662 2°55.959 127.4 -999 29 8
2009-06-29 06:44:13 51°13.662 2°55.959 127.4 0.1 12 8
2009-06-29 06:44:18 51°13.662 2°55.959 127.4 -999 54 8
2009-06-29 06:44:22 51°13.662 2°55.959 127.4 -999 182 8
2009-06-29 06:44:28 51°13.662 2°55.959 127.5 -999 21 8
2009-06-29 06:44:33 51°13.662 2°55.959 127.6 -999 343 8
2009-06-29 06:44:38 51°13.662 2°55.959 127.7 0.1 231 8
2009-06-29 06:44:42 51°13.662 2°55.959 127.8 -999 284 8
2009-06-29 06:44:48 51°13.662 2°55.959 127.8 0.1 10 8
2009-06-29 06:44:53 51°13.662 2°55.959 127.8 -999 18 8
2009-06-29 06:44:58 51°13.662 2°55.959 127.9 -999 63 8.1
2009-06-29 06:45:02 51°13.662 2°55.959 127.9 0.1 192 8
2009-06-29 06:45:08 51°13.661 2°55.959 128 0.1 191 8
2009-06-29 06:45:13 51°13.662 2°55.959 128 0.1 28 8
2009-06-29 06:45:18 51°13.662 2°55.959 128.1 0.1 27 8
2009-06-29 06:45:23 51°13.662 2°55.959 128.1 0.1 50 8
2009-06-29 06:45:28 51°13.662 2°55.959 128.2 -999 57 8
2009-06-29 06:45:33 51°13.662 2°55.959 128.2 -999 10 8
2009-06-29 06:45:38 51°13.662 2°55.959 128.3 -999 291 8
2009-06-29 06:45:43 51°13.662 2°55.959 128.4 -999 312 8.1
2009-06-29 06:45:48 51°13.662 2°55.959 128.5 -999 -999 8.1
2009-06-29 06:45:53 51°13.662 2°55.959 128.6 0.1 38 8.1
2009-06-29 06:45:58 51°13.662 2°55.959 128.6 0.1 42 8.2
2009-06-29 06:46:03 51°13.662 2°55.959 128.6 0.1 37 8.2
2009-06-29 06:46:08 51°13.662 2°55.959 128.6 -999 359 8.1
2009-06-29 06:46:13 51°13.662 2°55.959 128.6 0.1 34 8.1
2009-06-29 06:46:18 51°13.662 2°55.959 128.6 -999 66 8.1
2009-06-29 06:46:22 51°13.662 2°55.959 128.6 -999 57 8
2009-06-29 06:46:28 51°13.662 2°55.959 128.6 -999 222 8
2009-06-29 06:46:33 51°13.662 2°55.959 128.6 0.1 221 8.1
2009-06-29 06:46:38 51°13.662 2°55.959 128.6 0.1 201 8.2
2009-06-29 06:46:42 51°13.662 2°55.959 128.6 -999 37 8.1
2009-06-29 06:46:48 51°13.662 2°55.959 128.6 0.1 21 8.1
2009-06-29 06:46:53 51°13.662 2°55.958 128.6 -999 285 8.1
2009-06-29 06:46:58 51°13.662 2°55.958 128.6 -999 354 8.1
2009-06-29 06:47:02 51°13.662 2°55.958 128.6 0.1 26 8.1
2009-06-29 06:47:08 51°13.662 2°55.958 128.6 -999 322 8.1
2009-06-29 06:47:13 51°13.662 2°55.958 128.6 -999 154 8.1
2009-06-29 06:47:18 51°13.662 2°55.958 128.6 -999 205 8.1
2009-06-29 06:47:22 51°13.662 2°55.958 128.5 -999 357 8.1
2009-06-29 06:47:28 51°13.662 2°55.958 128.5 -999 70 8.1
2009-06-29 06:47:33 51°13.662 2°55.959 128.4 -999 71 8.1
2009-06-29 06:47:38 51°13.662 2°55.959 128.4 -999 251 8
2009-06-29 06:47:43 51°13.662 2°55.959 128.4 -999 253 8.1
2009-06-29 06:47:48 51°13.662 2°55.959 128.3 -999 230 8.1
2009-06-29 06:47:53 51°13.662 2°55.959 128.3 -999 43 8.1
2009-06-29 06:47:58 51°13.662 2°55.959 128.3 -999 328 8.1
2009-06-29 06:48:03 51°13.662 2°55.959 128.2 -999 339 8
2009-06-29 06:48:08 51°13.663 2°55.959 128.2 -999 86 8.1
2009-06-29 06:48:13 51°13.663 2°55.959 128.2 -999 38 8.1
2009-06-29 06:48:18 51°13.663 2°55.959 128.1 -999 306 8.1
2009-06-29 06:48:22 51°13.663 2°55.959 128 -999 15 8
2009-06-29 06:48:28 51°13.663 2°55.959 128 -999 343 8
2009-06-29 06:48:33 51°13.663 2°55.959 128 -999 348 8
2009-06-29 06:48:38 51°13.663 2°55.959 127.9 -999 320 8
2009-06-29 06:48:42 51°13.663 2°55.96 127.9 -999 255 8
2009-06-29 06:48:48 51°13.663 2°55.96 127.8 -999 109 8.1
2009-06-29 06:48:53 51°13.663 2°55.96 127.8 -999 39 8
2009-06-29 06:48:58 51°13.663 2°55.96 127.8 -999 5 8
2009-06-29 06:49:02 51°13.663 2°55.96 127.8 -999 44 8
2009-06-29 06:49:08 51°13.663 2°55.96 127.8 -999 330 8.1
2009-06-29 06:49:13 51°13.663 2°55.96 127.8 -999 52 8
2009-06-29 06:49:18 51°13.663 2°55.96 127.8 -999 23 8
2009-06-29 06:49:23 51°13.663 2°55.96 127.8 -999 214 8.1
2009-06-29 06:49:28 51°13.663 2°55.961 127.8 -999 216 8
2009-06-29 06:49:33 51°13.662 2°55.961 127.8 -999 230 8
2009-06-29 06:49:38 51°13.662 2°55.961 127.8 -999 23 8
2009-06-29 06:49:43 51°13.662 2°55.961 127.8 -999 78 8.1
2009-06-29 06:49:48 51°13.663 2°55.961 127.8 -999 32 8.1
2009-06-29 06:49:53 51°13.663 2°55.961 127.8 -999 68 8
2009-06-29 06:49:58 51°13.663 2°55.961 127.8 -999 65 8
2009-06-29 06:50:03 51°13.663 2°55.961 127.8 -999 63 8.1
2009-06-29 06:50:08 51°13.663 2°55.961 127.8 -999 31 8
2009-06-29 06:50:13 51°13.663 2°55.961 127.8 -999 278 8
2009-06-29 06:50:18 51°13.663 2°55.961 127.8 -999 6 8
2009-06-29 06:50:22 51°13.662 2°55.961 127.9 -999 29 8
2009-06-29 06:50:28 51°13.662 2°55.962 127.9 -999 20 8
2009-06-29 06:50:33 51°13.662 2°55.962 127.9 -999 235 8.1
2009-06-29 06:50:38 51°13.662 2°55.962 127.9 -999 334 8.1
2009-06-29 06:50:42 51°13.662 2°55.962 127.9 0.1 29 7.9
2009-06-29 06:50:48 51°13.663 2°55.962 128 -999 19 8
2009-06-29 06:50:53 51°13.663 2°55.962 127.9 -999 30 7.9
2009-06-29 06:50:58 51°13.663 2°55.962 127.9 -999 36 7.9
2009-06-29 06:51:02 51°13.663 2°55.962 127.8 -999 236 7.9
2009-06-29 06:51:08 51°13.663 2°55.962 127.8 -999 4 8
2009-06-29 06:51:13 51°13.663 2°55.962 127.8 -999 50 7.9
2009-06-29 06:51:18 51°13.663 2°55.962 127.8 -999 112 7.9
2009-06-29 06:51:23 51°13.663 2°55.962 127.7 -999 43 7.9
2009-06-29 06:51:28 51°13.663 2°55.962 127.7 -999 356 8
2009-06-29 06:51:33 51°13.663 2°55.962 127.7 -999 302 8
2009-06-29 06:51:38 51°13.663 2°55.962 127.7 -999 276 8
2009-06-29 06:51:43 51°13.663 2°55.961 127.7 -999 269 7.9
2009-06-29 06:51:48 51°13.663 2°55.961 127.6 -999 35 7.9
2009-06-29 06:51:53 51°13.663 2°55.961 127.6 -999 40 7.9
2009-06-29 06:51:58 51°13.663 2°55.961 127.5 -999 37 7.9
2009-06-29 06:52:03 51°13.663 2°55.961 127.5 -999 168 7.9
2009-06-29 06:52:08 51°13.663 2°55.961 127.5 -999 28 8
2009-06-29 06:52:13 51°13.663 2°55.961 127.5 -999 70 7.9
2009-06-29 06:52:18 51°13.663 2°55.961 127.5 -999 77 7.9
2009-06-29 06:52:22 51°13.663 2°55.961 127.5 -999 326 8
2009-06-29 06:52:28 51°13.663 2°55.961 127.5 -999 -999 7.9
2009-06-29 06:52:33 51°13.663 2°55.961 127.5 -999 93 7.9
2009-06-29 06:52:38 51°13.663 2°55.96 127.5 -999 335 7.9
2009-06-29 06:52:42 51°13.663 2°55.96 127.6 -999 198 7.9
2009-06-29 06:52:48 51°13.662 2°55.96 127.6 -999 239 7.9
2009-06-29 06:52:53 51°13.662 2°55.96 127.7 -999 65 7.9
2009-06-29 06:52:58 51°13.662 2°55.96 127.7 -999 34 8
2009-06-29 06:53:02 51°13.662 2°55.96 127.8 -999 78 8
2009-06-29 06:53:08 51°13.662 2°55.96 127.8 -999 272 7.9
2009-06-29 06:53:13 51°13.662 2°55.96 127.8 -999 40 7.9
2009-06-29 06:53:18 51°13.662 2°55.96 127.8 -999 66 8
2009-06-29 06:53:22 51°13.662 2°55.96 127.8 -999 59 8
2009-06-29 06:53:28 51°13.662 2°55.96 127.8 -999 341 8
2009-06-29 06:53:33 51°13.663 2°55.96 127.8 -999 30 7.9
2009-06-29 06:53:38 51°13.663 2°55.96 127.9 -999 3 7.9
2009-06-29 06:53:43 51°13.663 2°55.96 127.9 -999 42 7.9
2009-06-29 06:53:48 51°13.663 2°55.96 127.9 -999 56 7.9
2009-06-29 06:53:53 51°13.663 2°55.96 127.9 -999 36 7.9
2009-06-29 06:53:58 51°13.663 2°55.96 127.9 -999 3 7.9
2009-06-29 06:54:03 51°13.663 2°55.96 127.9 -999 318 8
2009-06-29 06:54:08 51°13.663 2°55.96 127.9 -999 60 8
2009-06-29 06:54:13 51°13.663 2°55.96 127.8 -999 50 7.9
2009-06-29 06:54:18 51°13.662 2°55.96 127.8 -999 1 7.9
2009-06-29 06:54:22 51°13.662 2°55.959 127.8 -999 23 7.9
2009-06-29 06:54:28 51°13.662 2°55.959 127.8 -999 2 7.9
2009-06-29 06:54:33 51°13.662 2°55.959 127.8 -999 84 7.9
2009-06-29 06:54:38 51°13.662 2°55.959 127.8 -999 30 8
2009-06-29 06:54:42 51°13.662 2°55.959 127.8 -999 63 7.9
2009-06-29 06:54:48 51°13.663 2°55.959 127.8 -999 32 7.9
2009-06-29 06:54:53 51°13.663 2°55.959 127.8 -999 41 8
2009-06-29 06:54:58 51°13.663 2°55.959 127.8 -999 59 8
2009-06-29 06:55:02 51°13.663 2°55.959 127.8 -999 325 7.9
2009-06-29 06:55:08 51°13.663 2°55.959 127.8 -999 244 7.9
2009-06-29 06:55:13 51°13.663 2°55.959 127.7 -999 21 8
2009-06-29 06:55:18 51°13.663 2°55.959 127.7 -999 320 8
2009-06-29 06:55:22 51°13.662 2°55.959 127.7 -999 40 7.9
2009-06-29 06:55:28 51°13.663 2°55.959 127.7 -999 48 7.9
2009-06-29 06:55:33 51°13.663 2°55.959 127.7 -999 294 8
2009-06-29 06:55:38 51°13.662 2°55.959 127.7 -999 236 7.9
2009-06-29 06:55:43 51°13.662 2°55.959 127.7 -999 328 7.9
2009-06-29 06:55:48 51°13.662 2°55.959 127.7 -999 14 7.9
2009-06-29 06:55:53 51°13.662 2°55.959 127.7 -999 54 7.8
2009-06-29 06:55:58 51°13.662 2°55.959 127.7 -999 58 7.8
2009-06-29 06:56:03 51°13.662 2°55.96 127.6 -999 59 7.9
2009-06-29 06:56:08 51°13.662 2°55.96 127.6 -999 326 7.8
2009-06-29 06:56:13 51°13.662 2°55.96 127.6 -999 21 7.9
2009-06-29 06:56:18 51°13.662 2°55.96 127.5 -999 318 7.9
2009-06-29 06:56:23 51°13.663 2°55.96 127.5 -999 345 8
2009-06-29 06:56:28 51°13.663 2°55.96 127.4 -999 275 7.9
2009-06-29 06:56:33 51°13.663 2°55.96 127.3 -999 40 7.8
2009-06-29 06:56:38 51°13.663 2°55.96 127.2 -999 266 7.8
2009-06-29 06:56:42 51°13.663 2°55.96 127.1 -999 340 7.8
2009-06-29 06:56:48 51°13.663 2°55.96 127.1 -999 317 7.9
2009-06-29 06:56:53 51°13.663 2°55.96 127 -999 294 7.8
2009-06-29 06:56:58 51°13.663 2°55.96 126.9 -999 323 7.8
2009-06-29 06:57:02 51°13.663 2°55.959 126.9 -999 33 7.8
2009-06-29 06:57:08 51°13.662 2°55.96 126.8 -999 51 7.8
2009-06-29 06:57:13 51°13.662 2°55.96 126.7 -999 56 7.9
2009-06-29 06:57:18 51°13.662 2°55.96 126.7 -999 21 7.9
2009-06-29 06:57:22 51°13.662 2°55.96 126.6 -999 14 7.9
2009-06-29 06:57:28 51°13.662 2°55.96 126.5 -999 41 7.9
2009-06-29 06:57:33 51°13.662 2°55.96 126.5 -999 320 7.8
2009-06-29 06:57:38 51°13.662 2°55.96 126.5 -999 173 7.8
2009-06-29 06:57:43 51°13.662 2°55.96 126.5 -999 12 7.7
2009-06-29 06:57:48 51°13.662 2°55.96 126.4 -999 337 7.8
2009-06-29 06:57:53 51°13.662 2°55.96 126.4 -999 73 8
2009-06-29 06:57:58 51°13.662 2°55.96 126.4 -999 220 7.9
2009-06-29 06:58:02 51°13.663 2°55.96 126.4 -999 9 7.9
2009-06-29 06:58:08 51°13.663 2°55.959 126.4 -999 289 7.9
2009-06-29 06:58:13 51°13.663 2°55.959 126.4 -999 309 7.9
2009-06-29 06:58:18 51°13.663 2°55.959 126.4 -999 141 7.8
2009-06-29 06:58:22 51°13.663 2°55.959 126.4 -999 9 7.8
2009-06-29 06:58:28 51°13.663 2°55.959 126.5 -999 10 7.8
2009-06-29 06:58:33 51°13.663 2°55.959 126.5 -999 329 7.8
2009-06-29 06:58:38 51°13.663 2°55.959 126.5 -999 43 7.8
2009-06-29 06:58:42 51°13.663 2°55.959 126.5 -999 325 7.8
2009-06-29 06:58:48 51°13.663 2°55.959 126.5 -999 339 7.8
2009-06-29 06:58:53 51°13.663 2°55.959 126.5 -999 357 7.8
2009-06-29 06:58:58 51°13.663 2°55.959 126.5 -999 340 7.9
2009-06-29 06:59:02 51°13.663 2°55.959 126.5 -999 356 7.9
2009-06-29 06:59:08 51°13.662 2°55.959 126.5 -999 350 7.9
2009-06-29 06:59:13 51°13.662 2°55.959 126.5 -999 310 7.9
2009-06-29 06:59:18 51°13.662 2°55.959 126.5 -999 124 7.8
2009-06-29 06:59:23 51°13.662 2°55.959 126.5 -999 30 7.8
2009-06-29 06:59:28 51°13.662 2°55.959 126.5 -999 40 7.8
2009-06-29 06:59:33 51°13.662 2°55.959 126.5 -999 329 7.8
2009-06-29 06:59:38 51°13.662 2°55.959 126.5 -999 34 7.9
2009-06-29 06:59:42 51°13.662 2°55.959 126.5 -999 298 7.8
2009-06-29 06:59:48 51°13.662 2°55.959 126.4 -999 6 7.8
2009-06-29 06:59:53 51°13.662 2°55.959 126.4 -999 319 7.8
2009-06-29 06:59:58 51°13.662 2°55.958 126.4 -999 3 7.8
2009-06-29 07:00:03 51°13.662 2°55.958 126.4 -999 343 7.8
2009-06-29 07:00:07 51°13.662 2°55.958 126.4 -999 278 7.8
2009-06-29 07:00:13 51°13.662 2°55.958 126.4 -999 24 7.8
2009-06-29 07:00:18 51°13.662 2°55.958 126.4 -999 71 7.8
2009-06-29 07:00:22 51°13.662 2°55.958 126.6 -999 37 7.8
2009-06-29 07:00:28 51°13.662 2°55.958 126.6 -999 93 7.8
2009-06-29 07:00:33 51°13.662 2°55.958 126.6 -999 293 7.9
2009-06-29 07:00:38 51°13.662 2°55.958 126.6 -999 51 7.8
2009-06-29 07:00:42 51°13.662 2°55.958 126.6 -999 331 7.8
2009-06-29 07:00:48 51°13.662 2°55.958 126.7 -999 88 7.8
2009-06-29 07:00:53 51°13.662 2°55.958 126.7 -999 169 7.8
2009-06-29 07:00:58 51°13.662 2°55.958 126.7 -999 111 7.8
2009-06-29 07:01:02 51°13.662 2°55.958 126.7 -999 219 7.8
2009-06-29 07:01:08 51°13.662 2°55.958 126.7 -999 53 7.9
2009-06-29 07:01:13 51°13.662 2°55.958 126.7 -999 254 7.9
2009-06-29 07:01:18 51°13.662 2°55.958 126.7 -999 34 7.8
2009-06-29 07:01:22 51°13.662 2°55.958 126.7 -999 284 7.8
2009-06-29 07:01:28 51°13.662 2°55.958 126.7 -999 35 7.8
2009-06-29 07:01:33 51°13.662 2°55.958 126.7 -999 328 7.8
2009-06-29 07:01:38 51°13.662 2°55.958 126.7 -999 359 7.8
2009-06-29 07:01:43 51°13.662 2°55.958 126.6 -999 72 7.8
2009-06-29 07:01:48 51°13.662 2°55.958 126.5 -999 1 7.8
2009-06-29 07:01:53 51°13.662 2°55.958 126.4 -999 217 7.8
2009-06-29 07:01:58 51°13.662 2°55.958 126.4 -999 23 7.8
2009-06-29 07:02:02 51°13.662 2°55.958 126.4 -999 284 7.8
2009-06-29 07:02:08 51°13.662 2°55.958 126.4 -999 50 7.8
2009-06-29 07:02:13 51°13.662 2°55.958 126.4 -999 247 7.8
2009-06-29 07:02:18 51°13.662 2°55.958 126.4 -999 8 7.9
2009-06-29 07:02:23 51°13.662 2°55.958 126.4 -999 179 7.8
2009-06-29 07:02:27 51°13.662 2°55.958 126.4 -999 33 7.8
2009-06-29 07:02:33 51°13.662 2°55.958 126.4 -999 319 7.9
2009-06-29 07:02:38 51°13.662 2°55.958 126.4 -999 36 7.8
2009-06-29 07:02:42 51°13.662 2°55.958 126.4 -999 258 7.7
2009-06-29 07:02:48 51°13.662 2°55.958 126.4 -999 55 7.8
2009-06-29 07:02:53 51°13.662 2°55.958 126.4 -999 237 7.8
2009-06-29 07:02:58 51°13.662 2°55.958 126.4 -999 121 7.8
2009-06-29 07:03:02 51°13.662 2°55.958 126.4 -999 197 7.8
2009-06-29 07:03:08 51°13.662 2°55.958 126.4 -999 44 7.7
2009-06-29 07:03:13 51°13.662 2°55.958 126.4 -999 132 7.8
2009-06-29 07:03:18 51°13.662 2°55.958 126.5 -999 35 5.7
2009-06-29 07:03:23 51°13.662 2°55.958 126.5 -999 303 7.8
2009-06-29 07:03:28 51°13.662 2°55.958 126.6 -999 33 7.8
2009-06-29 07:03:33 51°13.662 2°55.958 126.6 -999 278 7.8
2009-06-29 07:03:38 51°13.662 2°55.958 126.7 -999 12 5.7
2009-06-29 07:03:43 51°13.662 2°55.958 126.7 -999 274 7.7
2009-06-29 07:03:48 51°13.662 2°55.958 126.8 -999 24 7.8
2009-06-29 07:03:53 51°13.662 2°55.958 126.8 -999 56 7.8
2009-06-29 07:03:58 51°13.662 2°55.958 126.8 -999 86 7.8
2009-06-29 07:04:03 51°13.662 2°55.958 126.9 -999 253 7.8
2009-06-29 07:04:08 51°13.662 2°55.958 126.9 -999 1 7.8
2009-06-29 07:04:13 51°13.662 2°55.958 126.9 -999 211 7.8
2009-06-29 07:04:18 51°13.662 2°55.958 126.9 -999 40 7.8
2009-06-29 07:04:23 51°13.662 2°55.958 126.9 -999 187 7.8
2009-06-29 07:04:28 51°13.663 2°55.958 126.9 -999 350 7.8
2009-06-29 07:04:33 51°13.663 2°55.958 126.9 -999 266 7.8
2009-06-29 07:04:38 51°13.663 2°55.958 126.9 -999 30 7.8
2009-06-29 07:04:42 51°13.663 2°55.958 126.9 -999 322 7.8
2009-06-29 07:04:48 51°13.663 2°55.958 126.8 -999 11 7.8
2009-06-29 07:04:53 51°13.663 2°55.958 126.7 -999 330 7.8
2009-06-29 07:04:58 51°13.663 2°55.958 126.6 -999 26 7.7
2009-06-29 07:05:02 51°13.662 2°55.958 126.6 -999 338 7.7
2009-06-29 07:05:08 51°13.662 2°55.958 126.5 -999 39 7.8
2009-06-29 07:05:13 51°13.662 2°55.958 126.5 -999 342 7.8
2009-06-29 07:05:18 51°13.663 2°55.958 126.5 -999 8 7.7
2009-06-29 07:05:23 51°13.663 2°55.958 126.5 -999 25 7.8
2009-06-29 07:05:28 51°13.662 2°55.958 126.5 -999 220 7.7
2009-06-29 07:05:33 51°13.662 2°55.958 126.5 -999 3 7.7
2009-06-29 07:05:38 51°13.662 2°55.958 126.6 -999 334 5.7
2009-06-29 07:05:43 51°13.662 2°55.958 126.6 -999 324 7.7
2009-06-29 07:05:48 51°13.662 2°55.958 126.7 -999 217 7.7
2009-06-29 07:05:53 51°13.662 2°55.958 126.7 -999 60 7.8
2009-06-29 07:05:58 51°13.662 2°55.958 126.8 -999 73 5.7
2009-06-29 07:06:03 51°13.662 2°55.958 126.8 -999 333 7.8
2009-06-29 07:06:08 51°13.662 2°55.958 126.9 -999 27 7.7
2009-06-29 07:06:13 51°13.662 2°55.958 126.9 -999 114 7.7
2009-06-29 07:06:18 51°13.662 2°55.958 126.9 -999 89 7.7
2009-06-29 07:06:22 51°13.662 2°55.958 126.9 -999 337 7.7
2009-06-29 07:06:28 51°13.662 2°55.958 126.9 -999 325 7.7
2009-06-29 07:06:33 51°13.662 2°55.959 126.9 -999 336 7.7
2009-06-29 07:06:38 51°13.662 2°55.959 127 -999 342 7.7
2009-06-29 07:06:42 51°13.662 2°55.959 127 -999 337 7.7
2009-06-29 07:06:48 51°13.662 2°55.959 127 -999 332 7.7
2009-06-29 07:06:53 51°13.662 2°55.959 127 -999 46 7.7
2009-06-29 07:06:58 51°13.662 2°55.959 127.1 -999 70 7.7
2009-06-29 07:07:03 51°13.662 2°55.959 127.1 -999 4 5.7
2009-06-29 07:07:08 51°13.662 2°55.959 127.1 -999 94 7.7
2009-06-29 07:07:13 51°13.662 2°55.959 127.1 -999 10 7.8
2009-06-29 07:07:18 51°13.662 2°55.959 127.2 -999 355 7.7
2009-06-29 07:07:22 51°13.662 2°55.959 127.2 -999 111 7.7
2009-06-29 07:07:28 51°13.662 2°55.959 127.2 -999 66 5.7
2009-06-29 07:07:33 51°13.662 2°55.959 127.2 -999 355 7.7
2009-06-29 07:07:38 51°13.662 2°55.959 127.3 -999 14 7.8
2009-06-29 07:07:43 51°13.661 2°55.959 127.4 -999 3 7.8
2009-06-29 07:07:48 51°13.661 2°55.959 127.4 -999 21 7.8
2009-06-29 07:07:53 51°13.662 2°55.959 127.5 -999 348 7.8
2009-06-29 07:07:58 51°13.662 2°55.959 127.5 -999 354 7.8
2009-06-29 07:08:03 51°13.662 2°55.959 127.6 -999 25 7.8
2009-06-29 07:08:08 51°13.662 2°55.959 127.6 -999 281 7.7
2009-06-29 07:08:13 51°13.662 2°55.959 127.7 -999 340 5.7
2009-06-29 07:08:18 51°13.662 2°55.959 127.8 -999 334 7.7
2009-06-29 07:08:23 51°13.662 2°55.959 127.8 -999 323 7.7
2009-06-29 07:08:28 51°13.662 2°55.959 127.8 -999 359 7.7
2009-06-29 07:08:33 51°13.662 2°55.959 127.8 -999 35 7.7
2009-06-29 07:08:38 51°13.662 2°55.959 127.9 -999 88 7.8
2009-06-29 07:08:43 51°13.662 2°55.959 127.9 -999 46 7.8
2009-06-29 07:08:48 51°13.662 2°55.959 127.9 -999 15 7.8
2009-06-29 07:08:53 51°13.662 2°55.959 128 -999 87 7.8
2009-06-29 07:08:58 51°13.663 2°55.959 128 -999 93 7.8
2009-06-29 07:09:02 51°13.663 2°55.959 128 -999 203 7.8
2009-06-29 07:09:08 51°13.663 2°55.959 128 -999 343 7.8
2009-06-29 07:09:13 51°13.663 2°55.959 128 -999 124 7.8
2009-06-29 07:09:18 51°13.663 2°55.959 128 0.1 121 7.7
2009-06-29 07:09:23 51°13.663 2°55.959 128 -999 301 7.7
2009-06-29 07:09:28 51°13.663 2°55.959 128 -999 39 7.8
2009-06-29 07:09:33 51°13.663 2°55.959 128 -999 187 7.8
2009-06-29 07:09:38 51°13.663 2°55.959 128 -999 41 7.8
2009-06-29 07:09:43 51°13.663 2°55.959 128 -999 317 7.8
2009-06-29 07:09:48 51°13.663 2°55.959 128 -999 347 7.8
2009-06-29 07:09:53 51°13.663 2°55.959 127.9 -999 328 7.8
2009-06-29 07:09:58 51°13.663 2°55.959 127.8 -999 30 7.8
2009-06-29 07:10:03 51°13.663 2°55.959 127.8 -999 332 7.8
2009-06-29 07:10:08 51°13.663 2°55.959 127.7 -999 336 7.8
2009-06-29 07:10:18 51°13.663 2°55.959 127.5 -999 328 7.7
2009-06-29 07:10:24 51°13.663 2°55.959 127.4 -999 35 7.7
2009-06-29 07:10:29 51°13.663 2°55.959 127.4 -999 325 7.8
2009-06-29 07:10:34 51°13.663 2°55.959 127.4 -999 317 7.7
2009-06-29 07:10:38 51°13.663 2°55.959 127.4 -999 44 7.7
2009-06-29 07:10:44 51°13.662 2°55.959 127.4 -999 35 5.6
2009-06-29 07:10:49 51°13.662 2°55.959 127.4 -999 137 7.7
2009-06-29 07:10:54 51°13.662 2°55.959 127.4 -999 -999 7.7
2009-06-29 07:10:59 51°13.662 2°55.959 127.3 -999 22 7.7
2009-06-29 07:11:04 51°13.662 2°55.959 127.3 -999 60 5.6
2009-06-29 07:11:09 51°13.662 2°55.959 127.2 -999 40 7.8
2009-06-29 07:11:14 51°13.662 2°55.959 127.1 -999 135 7.7
2009-06-29 07:11:19 51°13.662 2°55.959 127.1 -999 53 7.7
2009-06-29 07:11:24 51°13.662 2°55.959 127.1 -999 98 7.7
2009-06-29 07:11:29 51°13.662 2°55.959 127.1 -999 204 7.7
2009-06-29 07:11:34 51°13.662 2°55.959 127.1 -999 343 5.6
2009-06-29 07:11:39 51°13.662 2°55.959 127.1 -999 318 7.7
2009-06-29 07:11:44 51°13.662 2°55.959 127.1 -999 25 7.7
2009-06-29 07:11:49 51°13.662 2°55.959 127.2 -999 24 7.7
2009-06-29 07:11:54 51°13.662 2°55.959 127.2 -999 147 7.6
2009-06-29 07:11:59 51°13.662 2°55.959 127.3 -999 18 5.7
2009-06-29 07:12:04 51°13.662 2°55.959 127.3 -999 312 7.8
2009-06-29 07:12:09 51°13.662 2°55.959 127.3 -999 349 7.8
2009-06-29 07:12:14 51°13.662 2°55.959 127.3 -999 356 7.7
2009-06-29 07:12:19 51°13.663 2°55.959 127.3 -999 358 7.8
2009-06-29 07:12:24 51°13.663 2°55.959 127.3 -999 151 7.7
2009-06-29 07:12:29 51°13.663 2°55.959 127.2 -999 278 7.7
2009-06-29 07:12:34 51°13.663 2°55.959 127.1 -999 313 7.7
2009-06-29 07:12:38 51°13.663 2°55.959 127.1 -999 23 -999
2009-06-29 07:12:44 51°13.663 2°55.959 127 -999 316 7.7
2009-06-29 07:12:49 51°13.663 2°55.959 126.9 -999 321 7.7
2009-06-29 07:12:54 51°13.663 2°55.959 126.8 -999 322 7.6
2009-06-29 07:12:59 51°13.663 2°55.959 126.7 -999 342 7.6
2009-06-29 07:13:04 51°13.663 2°55.959 126.6 -999 318 7.7
2009-06-29 07:13:09 51°13.663 2°55.959 126.5 -999 8 7.7
2009-06-29 07:13:14 51°13.663 2°55.959 126.5 -999 305 7.6
2009-06-29 07:13:19 51°13.663 2°55.959 126.4 -999 354 5.6
2009-06-29 07:13:24 51°13.663 2°55.959 126.4 -999 13 5.6
2009-06-29 07:13:29 51°13.663 2°55.959 126.4 -999 327 7.7
2009-06-29 07:13:34 51°13.663 2°55.959 126.3 -999 323 7.6
2009-06-29 07:13:39 51°13.663 2°55.959 126.3 -999 11 7.7
2009-06-29 07:13:44 51°13.663 2°55.959 126.3 -999 338 7.6
2009-06-29 07:13:49 51°13.663 2°55.959 126.3 -999 43 7.6
2009-06-29 07:13:54 51°13.663 2°55.959 126.3 -999 330 7.6
2009-06-29 07:13:58 51°13.663 2°55.959 126.3 -999 21 7.6
2009-06-29 07:14:04 51°13.663 2°55.959 126.3 -999 346 7.6
2009-06-29 07:14:09 51°13.663 2°55.959 126.3 -999 10 7.6
2009-06-29 07:14:14 51°13.663 2°55.959 126.3 -999 358 7.6
2009-06-29 07:14:18 51°13.663 2°55.959 126.3 -999 172 7.6
2009-06-29 07:14:24 51°13.663 2°55.959 126.3 -999 159 7.6
2009-06-29 07:14:29 51°13.663 2°55.959 126.4 -999 34 7.6
2009-06-29 07:14:34 51°13.662 2°55.959 126.4 -999 20 7.6
2009-06-29 07:14:38 51°13.662 2°55.959 126.4 -999 184 7.6
2009-06-29 07:14:44 51°13.663 2°55.959 126.5 -999 31 7.7
2009-06-29 07:14:49 51°13.663 2°55.959 126.6 -999 26 7.5
2009-06-29 07:14:54 51°13.663 2°55.959 126.6 -999 209 7.7
2009-06-29 07:14:59 51°13.663 2°55.959 126.7 -999 194 7.7
2009-06-29 07:15:04 51°13.663 2°55.959 126.7 -999 256 7.6
2009-06-29 07:15:09 51°13.663 2°55.959 126.8 -999 266 7.7
2009-06-29 07:15:14 51°13.663 2°55.959 126.9 -999 212 7.6
2009-06-29 07:15:18 51°13.663 2°55.959 127 -999 262 5.6
2009-06-29 07:15:24 51°13.663 2°55.959 127 -999 81 7.7
2009-06-29 07:15:29 51°13.663 2°55.959 127.1 -999 354 7.6
2009-06-29 07:15:34 51°13.663 2°55.959 127.1 -999 42 7.7
2009-06-29 07:15:38 51°13.663 2°55.959 127.1 -999 319 7.6
2009-06-29 07:15:44 51°13.663 2°55.959 127.1 -999 325 7.6
2009-06-29 07:15:49 51°13.663 2°55.959 127.1 -999 56 5.6
2009-06-29 07:15:54 51°13.663 2°55.959 127.1 -999 129 7.6
2009-06-29 07:15:59 51°13.663 2°55.959 127.1 -999 65 7.7
2009-06-29 07:16:04 51°13.663 2°55.959 127.1 -999 14 7.7
2009-06-29 07:16:09 51°13.663 2°55.959 127.1 -999 290 7.7
2009-06-29 07:16:14 51°13.663 2°55.959 127.1 -999 23 7.6
2009-06-29 07:16:19 51°13.663 2°55.959 127.1 -999 44 7.6
2009-06-29 07:16:24 51°13.663 2°55.959 127.2 -999 252 7.7
2009-06-29 07:16:29 51°13.663 2°55.959 127.2 -999 201 7.8
2009-06-29 07:16:34 51°13.663 2°55.96 127.1 -999 43 7.7
2009-06-29 07:16:39 51°13.663 2°55.96 127.1 -999 15 7.6
2009-06-29 07:16:44 51°13.663 2°55.96 127.1 -999 346 7.6
2009-06-29 07:16:49 51°13.663 2°55.959 127.1 -999 248 7.7
2009-06-29 07:16:54 51°13.663 2°55.96 127.1 -999 47 7.7
2009-06-29 07:16:58 51°13.663 2°55.96 127.1 -999 303 7.7
2009-06-29 07:17:04 51°13.663 2°55.96 127.1 -999 336 7.6
2009-06-29 07:17:09 51°13.663 2°55.96 127.1 -999 354 7.6
2009-06-29 07:17:14 51°13.663 2°55.96 127.1 -999 24 7.7
2009-06-29 07:17:18 51°13.663 2°55.96 127.1 -999 24 5.6
2009-06-29 07:17:24 51°13.663 2°55.96 127.1 -999 26 7.6
2009-06-29 07:17:29 51°13.663 2°55.96 127.1 -999 285 7.6
2009-06-29 07:17:34 51°13.663 2°55.96 127.1 -999 6 7.6
2009-06-29 07:17:39 51°13.663 2°55.96 127 -999 27 7.6
2009-06-29 07:17:44 51°13.663 2°55.959 127 -999 316 5.6
2009-06-29 07:17:49 51°13.663 2°55.959 126.9 -999 286 7.6
2009-06-29 07:17:54 51°13.663 2°55.96 126.9 -999 82 7.6
2009-06-29 07:17:59 51°13.663 2°55.96 126.9 -999 63 7.5
2009-06-29 07:18:04 51°13.663 2°55.959 126.9 -999 263 7.6
2009-06-29 07:18:09 51°13.663 2°55.96 126.9 -999 208 7.6
2009-06-29 07:18:14 51°13.664 2°55.959 126.9 -999 291 7.6
2009-06-29 07:18:19 51°13.664 2°55.959 126.9 -999 303 7.6
2009-06-29 07:18:24 51°13.664 2°55.959 126.9 -999 105 7.6
2009-06-29 07:18:29 51°13.664 2°55.96 126.9 -999 84 7.6
2009-06-29 07:18:34 51°13.664 2°55.96 126.9 -999 37 7.7
2009-06-29 07:18:38 51°13.664 2°55.96 126.9 -999 352 7.7
2009-06-29 07:18:44 51°13.664 2°55.96 126.9 -999 357 7.6
2009-06-29 07:18:49 51°13.664 2°55.96 126.9 -999 60 5.6
2009-06-29 07:18:54 51°13.664 2°55.96 126.9 -999 54 7.6
2009-06-29 07:18:59 51°13.665 2°55.96 126.9 -999 58 7.6
2009-06-29 07:19:04 51°13.665 2°55.96 126.9 -999 317 7.6
2009-06-29 07:19:09 51°13.665 2°55.96 126.9 0.1 235 5.6
2009-06-29 07:19:14 51°13.665 2°55.96 126.9 -999 283 7.6
2009-06-29 07:19:18 51°13.665 2°55.96 126.9 -999 282 7.6
2009-06-29 07:19:24 51°13.665 2°55.96 126.9 -999 302 5.6
2009-06-29 07:19:29 51°13.665 2°55.96 126.9 -999 12 7.6
2009-06-29 07:19:34 51°13.665 2°55.96 126.9 -999 321 7.6
2009-06-29 07:19:38 51°13.665 2°55.96 126.9 -999 299 7.5
2009-06-29 07:19:44 51°13.665 2°55.96 126.9 -999 331 7.5
2009-06-29 07:19:49 51°13.665 2°55.96 126.9 -999 10 7.5
2009-06-29 07:19:54 51°13.665 2°55.96 126.9 -999 45 7.6
2009-06-29 07:19:59 51°13.665 2°55.96 126.9 -999 83 7.5
2009-06-29 07:20:04 51°13.665 2°55.96 126.9 -999 58 7.5
2009-06-29 07:20:09 51°13.665 2°55.96 126.9 -999 44 7.5
2009-06-29 07:20:14 51°13.665 2°55.96 126.9 -999 138 7.6
2009-06-29 07:20:19 51°13.665 2°55.96 126.9 -999 291 7.6
2009-06-29 07:20:24 51°13.664 2°55.96 126.9 -999 59 7.7
2009-06-29 07:20:29 51°13.665 2°55.96 126.9 -999 29 7.5
2009-06-29 07:20:34 51°13.664 2°55.96 126.9 -999 212 7.5
2009-06-29 07:20:39 51°13.664 2°55.96 126.9 -999 245 7.5
2009-06-29 07:20:44 51°13.664 2°55.96 126.9 -999 10 7.5
2009-06-29 07:20:49 51°13.664 2°55.96 126.9 -999 -999 5.6
2009-06-29 07:20:54 51°13.664 2°55.96 126.9 0.1 40 7.5
2009-06-29 07:20:58 51°13.664 2°55.96 126.9 -999 67 7.5
2009-06-29 07:21:04 51°13.664 2°55.96 126.9 -999 278 5.6
2009-06-29 07:21:09 51°13.664 2°55.96 126.9 -999 246 7.5
2009-06-29 07:21:14 51°13.664 2°55.96 126.9 -999 330 7.6
2009-06-29 07:21:19 51°13.664 2°55.96 126.9 -999 49 7.6
2009-06-29 07:21:24 51°13.664 2°55.96 126.9 -999 23 7.6
2009-06-29 07:21:29 51°13.664 2°55.96 126.9 -999 258 7.6
2009-06-29 07:21:34 51°13.664 2°55.96 126.9 -999 61 7.6
2009-06-29 07:21:39 51°13.664 2°55.959 126.9 -999 179 7.6
2009-06-29 07:21:44 51°13.664 2°55.959 126.9 -999 152 7.6
2009-06-29 07:21:49 51°13.664 2°55.959 126.9 -999 11 7.5
2009-06-29 07:21:54 51°13.664 2°55.959 126.9 -999 67 7.5
2009-06-29 07:21:59 51°13.664 2°55.959 126.9 -999 14 7.5
2009-06-29 07:22:04 51°13.664 2°55.959 126.9 -999 26 7.5
2009-06-29 07:22:09 51°13.664 2°55.959 126.9 -999 253 5.6
2009-06-29 07:22:14 51°13.664 2°55.959 126.9 -999 295 7.6
2009-06-29 07:22:18 51°13.664 2°55.959 126.9 -999 29 7.6
2009-06-29 07:22:24 51°13.663 2°55.959 126.9 -999 66 7.6
2009-06-29 07:22:29 51°13.663 2°55.959 126.9 -999 355 7.5
2009-06-29 07:22:34 51°13.663 2°55.959 126.9 -999 33 7.5
2009-06-29 07:22:39 51°13.663 2°55.959 126.9 -999 261 7.5
2009-06-29 07:22:44 51°13.663 2°55.959 126.9 -999 328 7.5
2009-06-29 07:22:49 51°13.663 2°55.959 126.9 -999 259 7.5
2009-06-29 07:22:54 51°13.663 2°55.959 126.9 -999 247 5.6
2009-06-29 07:22:59 51°13.663 2°55.959 126.9 -999 62 5.6
2009-06-29 07:23:04 51°13.663 2°55.959 126.9 -999 39 7.5
2009-06-29 07:23:09 51°13.663 2°55.959 126.9 -999 21 7.6
2009-06-29 07:23:14 51°13.663 2°55.959 126.9 -999 271 7.5
2009-06-29 07:23:19 51°13.663 2°55.959 127 -999 155 7.5
2009-06-29 07:23:24 51°13.663 2°55.959 127 -999 58 7.6
2009-06-29 07:23:29 51°13.663 2°55.959 127 -999 18 7.5
2009-06-29 07:23:34 51°13.663 2°55.96 127.1 -999 66 7.5
2009-06-29 07:23:38 51°13.663 2°55.959 127.1 -999 256 7.5
2009-06-29 07:23:44 51°13.663 2°55.96 127.1 -999 110 7.5
2009-06-29 07:23:49 51°13.663 2°55.96 127.2 -999 69 5.6
2009-06-29 07:23:54 51°13.663 2°55.96 127.2 0.1 34 7.7
2009-06-29 07:23:58 51°13.663 2°55.96 127.2 -999 4 7.6
2009-06-29 07:24:04 51°13.663 2°55.96 127.3 -999 147 7.5
2009-06-29 07:24:09 51°13.663 2°55.959 127.4 -999 58 5.6
2009-06-29 07:24:14 51°13.663 2°55.959 127.4 -999 -999 7.7
2009-06-29 07:24:19 51°13.663 2°55.959 127.4 -999 317 7.7
2009-06-29 07:24:24 51°13.663 2°55.959 127.5 -999 235 7.5
2009-06-29 07:24:29 51°13.663 2°55.959 127.5 -999 258 5.6
2009-06-29 07:24:34 51°13.663 2°55.959 127.5 -999 343 7.6
2009-06-29 07:24:39 51°13.663 2°55.959 127.5 -999 4 7.6
2009-06-29 07:24:44 51°13.663 2°55.959 127.5 -999 32 -999
2009-06-29 07:24:49 51°13.663 2°55.959 127.5 -999 35 7.6
2009-06-29 07:24:54 51°13.663 2°55.959 127.5 0.1 32 7.5
2009-06-29 07:24:59 51°13.663 2°55.959 127.5 -999 43 7.5
2009-06-29 07:25:04 51°13.663 2°55.959 127.4 -999 225 7.5
2009-06-29 07:25:09 51°13.663 2°55.959 127.4 -999 26 7.5
2009-06-29 07:25:14 51°13.663 2°55.959 127.3 -999 32 7.6
2009-06-29 07:25:19 51°13.663 2°55.959 127.3 -999 21 5.5
2009-06-29 07:25:24 51°13.663 2°55.959 127.3 -999 1 7.5
2009-06-29 07:25:29 51°13.663 2°55.959 127.2 -999 336 7.5
2009-06-29 07:25:34 51°13.663 2°55.959 127.2 -999 291 7.5
2009-06-29 07:25:39 51°13.663 2°55.959 127.2 -999 243 5.6
2009-06-29 07:25:44 51°13.663 2°55.96 127.2 -999 31 7.5
2009-06-29 07:25:49 51°13.663 2°55.96 127.2 -999 60 7.4
2009-06-29 07:25:54 51°13.664 2°55.96 127.2 -999 28 7.5
2009-06-29 07:25:59 51°13.664 2°55.96 127.2 -999 357 7.5
2009-06-29 07:26:04 51°13.664 2°55.96 127.2 -999 238 7.5
2009-06-29 07:26:09 51°13.664 2°55.96 127.2 -999 229 7.7
2009-06-29 07:26:14 51°13.664 2°55.96 127.2 -999 254 5.5
2009-06-29 07:26:18 51°13.664 2°55.96 127.2 -999 358 7.5
2009-06-29 07:26:24 51°13.664 2°55.961 127.2 -999 295 7.5
2009-06-29 07:26:29 51°13.664 2°55.961 127.2 -999 2 7.5
2009-06-29 07:26:34 51°13.664 2°55.961 127.2 -999 223 5.6
2009-06-29 07:26:38 51°13.664 2°55.961 127.2 -999 22 7.5
2009-06-29 07:26:44 51°13.664 2°55.961 127.2 -999 328 7.5
2009-06-29 07:26:49 51°13.664 2°55.961 127.2 -999 52 5.5
2009-06-29 07:26:54 51°13.664 2°55.961 127.2 -999 39 7.5
2009-06-29 07:26:59 51°13.664 2°55.961 127.2 -999 350 7.5
2009-06-29 07:27:04 51°13.664 2°55.961 127.1 -999 50 7.5
2009-06-29 07:27:09 51°13.663 2°55.961 127.1 -999 31 7.5
2009-06-29 07:27:14 51°13.663 2°55.96 127.1 -999 258 5.5
2009-06-29 07:27:18 51°13.663 2°55.961 127.1 -999 24 7.5
2009-06-29 07:27:24 51°13.663 2°55.961 127.1 -999 290 7.4
2009-06-29 07:27:29 51°13.663 2°55.961 127.1 -999 19 7.5
2009-06-29 07:27:34 51°13.663 2°55.96 127.2 -999 260 7.5
2009-06-29 07:27:39 51°13.663 2°55.96 127.2 -999 222 7.4
2009-06-29 07:27:44 51°13.663 2°55.96 127.2 -999 315 7.4
2009-06-29 07:27:49 51°13.663 2°55.96 127.2 -999 349 7.4
2009-06-29 07:27:54 51°13.663 2°55.96 127.2 -999 226 7.4
2009-06-29 07:27:59 51°13.663 2°55.96 127.1 -999 130 7.4
2009-06-29 07:28:04 51°13.663 2°55.96 127.1 -999 52 7.4
2009-06-29 07:28:10 51°13.663 2°55.96 127.1 -999 16 7.5
2009-06-29 07:28:14 51°13.663 2°55.96 127.1 -999 21 7.4
2009-06-29 07:28:18 51°13.662 2°55.96 127.1 -999 286 7.5
2009-06-29 07:28:25 51°13.662 2°55.96 127.1 -999 220 7.4
2009-06-29 07:28:29 51°13.662 2°55.96 127.1 -999 32 5.6
2009-06-29 07:28:34 51°13.662 2°55.96 127 -999 343 7.4
2009-06-29 07:28:38 51°13.662 2°55.96 127 -999 264 7.5
2009-06-29 07:28:45 51°13.662 2°55.96 127 -999 295 7.5
2009-06-29 07:28:50 51°13.662 2°55.96 126.9 -999 87 7.4
2009-06-29 07:28:54 51°13.662 2°55.96 126.9 -999 27 7.4
2009-06-29 07:28:58 51°13.662 2°55.96 126.9 0.1 44 7.4
2009-06-29 07:29:04 51°13.662 2°55.96 126.9 -999 30 5.5
2009-06-29 07:29:10 51°13.662 2°55.96 126.9 -999 331 7.4
2009-06-29 07:29:15 51°13.662 2°55.96 126.9 -999 277 7.4
2009-06-29 07:29:19 51°13.663 2°55.96 126.9 -999 159 5.5
2009-06-29 07:29:25 51°13.663 2°55.96 126.9 -999 241 7.4
2009-06-29 07:29:29 51°13.663 2°55.96 126.9 -999 322 7.4
2009-06-29 07:29:35 51°13.663 2°55.959 126.9 -999 223 -999
2009-06-29 07:29:39 51°13.663 2°55.959 126.9 -999 298 7.4
2009-06-29 07:29:44 51°13.663 2°55.959 126.9 -999 6 7.4
2009-06-29 07:29:50 51°13.663 2°55.959 126.9 -999 234 7.4
2009-06-29 07:29:55 51°13.663 2°55.959 126.9 -999 279 7.5
2009-06-29 07:29:59 51°13.663 2°55.959 126.9 -999 301 7.4
2009-06-29 07:30:04 51°13.663 2°55.959 126.9 -999 152 7.4
2009-06-29 07:30:09 51°13.663 2°55.959 126.9 -999 182 7.4
2009-06-29 07:30:14 51°13.663 2°55.959 126.9 -999 167 7.5
2009-06-29 07:30:19 51°13.663 2°55.959 127 -999 15 7.4
2009-06-29 07:30:23 51°13.663 2°55.959 127 -999 35 5.5
2009-06-29 07:30:29 51°13.663 2°55.959 127 -999 102 -999
2009-06-29 07:30:34 51°13.663 2°55.959 127.1 -999 181 7.5
2009-06-29 07:30:39 51°13.663 2°55.959 127.1 -999 104 7.6
2009-06-29 07:30:44 51°13.662 2°55.959 127.1 -999 288 5.6
2009-06-29 07:30:49 51°13.662 2°55.959 127.1 -999 277 7.5
2009-06-29 07:30:54 51°13.662 2°55.959 127.1 0.1 171 7.4
2009-06-29 07:30:59 51°13.662 2°55.959 127.1 -999 166 7.5
2009-06-29 07:31:04 51°13.662 2°55.959 127.1 -999 296 5.5
2009-06-29 07:31:09 51°13.662 2°55.959 127.2 -999 33 7.4
2009-06-29 07:31:14 51°13.662 2°55.959 127.2 -999 350 7.4
2009-06-29 07:31:19 51°13.662 2°55.959 127.1 -999 111 5.5
2009-06-29 07:31:24 51°13.662 2°55.959 127.1 -999 162 7.5
2009-06-29 07:31:29 51°13.663 2°55.959 127.1 -999 329 7.4
2009-06-29 07:31:34 51°13.663 2°55.959 127.1 -999 265 5.5
2009-06-29 07:31:39 51°13.663 2°55.959 127.1 -999 346 5.5
2009-06-29 07:31:44 51°13.663 2°55.959 127.1 -999 341 7.4
2009-06-29 07:31:49 51°13.663 2°55.959 127.1 -999 26 7.4
2009-06-29 07:31:54 51°13.662 2°55.959 127.1 -999 327 7.5
2009-06-29 07:31:59 51°13.662 2°55.959 127.1 -999 75 7.5
2009-06-29 07:32:04 51°13.662 2°55.959 127.1 -999 168 7.4
2009-06-29 07:32:09 51°13.662 2°55.959 127.1 -999 49 7.4
2009-06-29 07:32:14 51°13.662 2°55.959 127 -999 236 7.5
2009-06-29 07:32:19 51°13.662 2°55.959 127 -999 319 5.5
2009-06-29 07:32:24 51°13.662 2°55.959 127 -999 330 7.5
2009-06-29 07:32:29 51°13.662 2°55.959 127 -999 2 7.5
2009-06-29 07:32:34 51°13.662 2°55.959 127 -999 109 5.5
2009-06-29 07:32:39 51°13.662 2°55.959 127 -999 142 7.4
2009-06-29 07:32:44 51°13.662 2°55.959 127 -999 345 7.4
2009-06-29 07:32:49 51°13.662 2°55.959 127 0.1 -999 5.5
2009-06-29 07:32:54 51°13.662 2°55.959 127.1 0.1 340 7.5
2009-06-29 07:32:59 51°13.662 2°55.959 127.1 -999 15 7.5
2009-06-29 07:33:04 51°13.661 2°55.959 127.1 -999 8 5.5
2009-06-29 07:33:09 51°13.662 2°55.959 127.1 0.1 344 7.4
2009-06-29 07:33:14 51°13.661 2°55.959 127.1 -999 319 7.4
2009-06-29 07:33:19 51°13.661 2°55.959 127.1 0.1 322 7.4
2009-06-29 07:33:24 51°13.661 2°55.959 127.1 -999 60 5.5
2009-06-29 07:33:30 51°13.661 2°55.959 127.1 -999 96 -999
2009-06-29 07:33:34 51°13.661 2°55.959 127.1 -999 285 7.4
2009-06-29 07:33:39 51°13.661 2°55.959 127.1 0.1 336 7.3
2009-06-29 07:33:44 51°13.661 2°55.959 127 0.1 355 7.5
2009-06-29 07:33:49 51°13.661 2°55.959 127 -999 310 7.5
2009-06-29 07:33:54 51°13.661 2°55.959 127 -999 167 7.4
2009-06-29 07:33:59 51°13.661 2°55.959 127 -999 142 5.5
2009-06-29 07:34:03 51°13.661 2°55.959 127 -999 137 7.5
2009-06-29 07:34:09 51°13.661 2°55.959 127 -999 359 7.4
2009-06-29 07:34:14 51°13.661 2°55.959 127 -999 112 5.5
2009-06-29 07:34:19 51°13.661 2°55.959 127.1 -999 91 7.3
2009-06-29 07:34:24 51°13.661 2°55.959 127.1 0.1 334 7.4
2009-06-29 07:34:29 51°13.661 2°55.959 127.1 -999 327 5.5
2009-06-29 07:34:34 51°13.661 2°55.96 127.1 -999 156 7.3
2009-06-29 07:34:39 51°13.661 2°55.959 127.2 -999 304 7.3
2009-06-29 07:34:44 51°13.661 2°55.959 127.2 -999 284 5.5
2009-06-29 07:34:49 51°13.661 2°55.959 127.2 -999 306 7.3
2009-06-29 07:34:54 51°13.661 2°55.959 127.2 -999 250 7.4
2009-06-29 07:34:59 51°13.661 2°55.959 127.2 0.1 157 7.4
2009-06-29 07:35:04 51°13.661 2°55.96 127.2 -999 115 -999
2009-06-29 07:35:09 51°13.661 2°55.96 127.2 -999 330 7.4
2009-06-29 07:35:14 51°13.661 2°55.96 127.2 -999 287 7.4
2009-06-29 07:35:19 51°13.661 2°55.96 127.2 -999 351 5.5
2009-06-29 07:35:24 51°13.661 2°55.96 127.2 -999 339 7.4
2009-06-29 07:35:29 51°13.662 2°55.96 127.2 0.1 337 7.3
2009-06-29 07:35:34 51°13.662 2°55.96 127.2 -999 350 7.3
2009-06-29 07:35:39 51°13.662 2°55.96 127.2 0.1 348 7.3
2009-06-29 07:35:44 51°13.662 2°55.96 127.2 -999 325 7.4
2009-06-29 07:35:49 51°13.662 2°55.96 127.2 -999 355 7.5
2009-06-29 07:35:54 51°13.661 2°55.96 127.3 -999 18 7.3
2009-06-29 07:35:59 51°13.661 2°55.96 127.3 -999 323 7.4
2009-06-29 07:36:04 51°13.661 2°55.96 127.3 -999 345 7.3
2009-06-29 07:36:09 51°13.661 2°55.96 127.3 -999 17 7.4
2009-06-29 07:36:14 51°13.661 2°55.96 127.3 0.1 337 5.5
2009-06-29 07:36:19 51°13.662 2°55.96 127.3 0.1 326 7.4
2009-06-29 07:36:24 51°13.662 2°55.96 127.2 -999 334 7.5
2009-06-29 07:36:29 51°13.662 2°55.96 127.1 -999 335 7.5
2009-06-29 07:36:34 51°13.662 2°55.96 127.1 -999 240 7.5
2009-06-29 07:36:39 51°13.662 2°55.96 127.1 -999 299 7.4
2009-06-29 07:36:44 51°13.662 2°55.96 127.1 -999 4 7.4
2009-06-29 07:36:49 51°13.661 2°55.96 127.1 -999 356 5.5
2009-06-29 07:36:54 51°13.661 2°55.96 127.1 -999 168 7.4
2009-06-29 07:36:59 51°13.662 2°55.959 127 -999 97 7.4
2009-06-29 07:37:04 51°13.662 2°55.959 127 -999 110 7.3
2009-06-29 07:37:09 51°13.662 2°55.959 127 -999 46 7.4
2009-06-29 07:37:14 51°13.662 2°55.959 127 -999 205 7.4
2009-06-29 07:37:19 51°13.662 2°55.959 127 -999 242 7.4
2009-06-29 07:37:23 51°13.662 2°55.959 127.1 -999 127 7.4
2009-06-29 07:37:29 51°13.662 2°55.959 127.1 -999 71 7.4
2009-06-29 07:37:34 51°13.662 2°55.959 127.2 -999 353 -999
2009-06-29 07:37:39 51°13.662 2°55.959 127.2 -999 88 7.3
2009-06-29 07:37:44 51°13.662 2°55.959 127.3 -999 142 7.4
2009-06-29 07:37:49 51°13.662 2°55.96 127.3 0.1 43 7.5
2009-06-29 07:37:54 51°13.662 2°55.96 127.4 -999 -999 7.5
2009-06-29 07:37:59 51°13.662 2°55.96 127.4 0.1 50 7.4
2009-06-29 07:38:04 51°13.662 2°55.96 127.5 -999 334 7.4
2009-06-29 07:38:09 51°13.662 2°55.96 127.5 0.1 329 7.4
2009-06-29 07:38:14 51°13.662 2°55.96 127.6 -999 324 7.4
2009-06-29 07:38:19 51°13.662 2°55.96 127.6 -999 345 5.5
2009-06-29 07:38:24 51°13.662 2°55.96 127.6 -999 254 7.4
2009-06-29 07:38:29 51°13.662 2°55.961 127.6 -999 21 7.4
2009-06-29 07:38:34 51°13.662 2°55.961 127.6 -999 -999 7.4
2009-06-29 07:38:39 51°13.662 2°55.961 127.6 -999 9 7.4
2009-06-29 07:38:44 51°13.661 2°55.961 127.6 -999 151 5.5
2009-06-29 07:38:49 51°13.661 2°55.961 127.6 -999 43 7.5
2009-06-29 07:38:54 51°13.661 2°55.961 127.6 -999 278 7.4
2009-06-29 07:38:59 51°13.662 2°55.961 127.6 -999 358 5.5
2009-06-29 07:39:04 51°13.662 2°55.961 127.6 -999 176 7.4
2009-06-29 07:39:09 51°13.662 2°55.961 127.6 -999 353 7.4
2009-06-29 07:39:15 51°13.662 2°55.961 127.6 0.1 318 5.5
2009-06-29 07:39:19 51°13.662 2°55.961 127.6 0.1 -999 7.4
2009-06-29 07:39:24 51°13.662 2°55.961 127.7 -999 8 7.4
2009-06-29 07:39:29 51°13.662 2°55.961 127.7 -999 26 7.4
2009-06-29 07:39:34 51°13.662 2°55.961 127.7 -999 191 5.5
2009-06-29 07:39:39 51°13.662 2°55.961 127.7 -999 94 7.4
2009-06-29 07:39:44 51°13.661 2°55.961 127.7 -999 186 7.3
2009-06-29 07:39:49 51°13.662 2°55.961 127.7 -999 355 7.4
2009-06-29 07:39:54 51°13.662 2°55.961 127.7 -999 229 5.4
2009-06-29 07:39:59 51°13.662 2°55.961 127.7 -999 2 7.3
2009-06-29 07:40:03 51°13.662 2°55.961 127.7 -999 277 7.4
2009-06-29 07:40:09 51°13.662 2°55.961 127.7 -999 121 7.3
2009-06-29 07:40:14 51°13.662 2°55.961 127.7 -999 241 5.5
2009-06-29 07:40:19 51°13.662 2°55.961 127.7 -999 187 7.4
2009-06-29 07:40:24 51°13.662 2°55.961 127.8 -999 183 7.3
2009-06-29 07:40:29 51°13.662 2°55.961 127.8 -999 23 7.3
2009-06-29 07:40:34 51°13.662 2°55.961 127.8 -999 -999 7.3
2009-06-29 07:40:39 51°13.662 2°55.961 127.8 -999 311 5.5
2009-06-29 07:40:44 51°13.663 2°55.96 127.8 0.1 336 7.3
2009-06-29 07:40:49 51°13.664 2°55.96 127.8 0.1 346 7.3
2009-06-29 07:40:54 51°13.662 2°55.961 127.7 -999 5 7.3
2009-06-29 07:40:59 51°13.66 2°55.962 127.7 -999 12 5.5
2009-06-29 07:41:04 51°13.66 2°55.962 127.7 -999 295 7.3
2009-06-29 07:41:09 51°13.66 2°55.962 127.7 -999 348 7.3
2009-06-29 07:41:14 51°13.66 2°55.962 127.7 -999 141 7.3
2009-06-29 07:41:19 51°13.66 2°55.962 127.7 -999 127 7.3
2009-06-29 07:41:24 51°13.66 2°55.962 127.7 -999 320 7.3
2009-06-29 07:41:29 51°13.66 2°55.961 127.7 -999 341 5.5
2009-06-29 07:41:34 51°13.661 2°55.961 127.8 -999 190 7.3
2009-06-29 07:41:39 51°13.661 2°55.961 127.8 -999 324 7.3
2009-06-29 07:41:44 51°13.661 2°55.961 127.8 -999 253 7.3
2009-06-29 07:41:49 51°13.661 2°55.961 127.9 -999 181 5.5
2009-06-29 07:41:54 51°13.661 2°55.961 127.9 -999 354 5.5
2009-06-29 07:41:59 51°13.661 2°55.961 128.1 -999 140 7.4
2009-06-29 07:42:03 51°13.661 2°55.961 128.1 -999 69 7.4
2009-06-29 07:42:09 51°13.661 2°55.961 128.2 -999 31 7.5
2009-06-29 07:42:14 51°13.661 2°55.961 128.3 -999 334 5.5
2009-06-29 07:42:19 51°13.662 2°55.961 128.5 -999 156 -999
2009-06-29 07:42:24 51°13.662 2°55.96 128.6 -999 45 7.3
2009-06-29 07:42:29 51°13.663 2°55.96 128.6 -999 335 7.4